Time;durP1;ratioP1;P1;durP2;ratioP2;P2;SDS_P1;SDS_P2;PMS_P1;PMS_P2;Temp;Humidity;BMP_temperature;BMP_pressure;BME280_temperature;BME280_humidity;BME280_pressure;Samples;Min_cycle;Max_cycle;Signal;HPM_P1;HPM_P2
2022/08/03 00:01:50;;;;;;;9.30;3.85;;;;;;;22.01;100.00;101123.28;4963984;28;20057;-71
2022/08/03 00:04:19;;;;;;;8.77;3.80;;;;;;;21.98;100.00;101123.44;4963192;28;20149;-70
2022/08/03 00:06:45;;;;;;;8.35;3.60;;;;;;;21.93;100.00;101124.03;4961266;28;20047;-71
2022/08/03 00:09:12;;;;;;;8.57;3.63;;;;;;;21.89;100.00;101127.00;4963319;28;20510;-72
2022/08/03 00:11:39;;;;;;;9.55;4.20;;;;;;;21.88;100.00;101125.47;4964235;28;20570;-71
2022/08/03 00:14:06;;;;;;;7.78;4.20;;;;;;;21.87;100.00;101126.69;4964740;28;20118;-75
2022/08/03 00:16:33;;;;;;;9.35;3.95;;;;;;;21.86;100.00;101115.88;4963335;28;20043;-68
2022/08/03 00:19:00;;;;;;;9.98;4.18;;;;;;;21.84;100.00;101121.22;4962927;28;20043;-71
2022/08/03 00:21:28;;;;;;;11.32;4.32;;;;;;;21.79;100.00;101121.81;4960626;28;20047;-72
2022/08/03 00:23:55;;;;;;;9.13;4.22;;;;;;;21.76;100.00;101126.34;4965037;28;20074;-71
2022/08/03 00:26:22;;;;;;;10.18;4.22;;;;;;;21.73;100.00;101115.25;4964307;28;20043;-71
2022/08/03 00:28:49;;;;;;;9.68;4.38;;;;;;;21.70;100.00;101116.13;4962277;28;20530;-71
2022/08/03 00:31:15;;;;;;;11.57;4.50;;;;;;;21.68;100.00;101112.97;4962218;28;20054;-73
2022/08/03 00:33:51;;;;;;;9.82;4.43;;;;;;;21.64;100.00;101109.53;4962659;28;21513;-73
2022/08/03 00:36:27;;;;;;;10.77;4.68;;;;;;;21.59;100.00;101108.09;4963253;28;20141;-71
2022/08/03 00:38:55;;;;;;;9.70;4.35;;;;;;;21.56;100.00;101108.25;4962964;28;20054;-72
2022/08/03 00:41:22;;;;;;;11.77;5.07;;;;;;;21.54;100.00;101097.44;4961221;28;20852;-70
2022/08/03 00:43:49;;;;;;;13.50;4.50;;;;;;;21.51;100.00;101101.19;4963851;28;20998;-71
2022/08/03 00:46:15;;;;;;;10.27;3.85;;;;;;;21.53;100.00;101100.72;4962773;28;20096;-71
2022/08/03 00:48:52;;;;;;;12.35;4.72;;;;;;;21.48;100.00;101095.69;4963137;28;20082;-71
2022/08/03 00:51:22;;;;;;;11.20;4.28;;;;;;;21.48;100.00;101101.31;4964170;28;20047;-71
2022/08/03 00:53:49;;;;;;;10.73;4.40;;;;;;;21.46;100.00;101103.84;4962396;28;20057;-70
2022/08/03 00:56:17;;;;;;;12.93;4.90;;;;;;;21.45;100.00;101103.03;4959542;28;20055;-69
2022/08/03 00:58:45;;;;;;;11.45;4.70;;;;;;;21.45;100.00;101105.84;4963068;28;20050;-70
2022/08/03 01:01:13;;;;;;;10.48;4.15;;;;;;;21.45;100.00;101099.44;4963879;28;20103;-68
2022/08/03 01:03:40;;;;;;;10.55;4.75;;;;;;;21.37;100.00;101095.34;4963004;28;20051;-67
2022/08/03 01:06:14;;;;;;;13.40;4.85;;;;;;;21.37;100.00;101096.13;4962665;28;20046;-69
2022/08/03 01:08:59;;;;;;;15.17;4.73;;;;;;;21.37;100.00;101095.34;4963820;28;20046;-71
2022/08/03 01:11:35;;;;;;;12.00;4.47;;;;;;;21.34;100.00;101093.44;4964569;28;20142;-72
2022/08/03 01:14:35;;;;;;;11.50;4.60;;;;;;;21.29;100.00;101088.44;4960242;28;20062;-73
2022/08/03 01:17:38;;;;;;;12.35;4.63;;;;;;;21.25;100.00;101093.38;4962810;28;20038;-70
2022/08/03 01:20:12;;;;;;;11.27;4.80;;;;;;;21.23;100.00;101091.03;4964648;28;20050;-70
2022/08/03 01:22:54;;;;;;;13.43;5.23;;;;;;;21.23;100.00;101088.22;4961736;28;20130;-71
2022/08/03 01:25:35;;;;;;;13.48;4.55;;;;;;;21.19;100.00;101090.38;4962297;28;21032;-73
2022/08/03 01:28:33;;;;;;;9.10;4.20;;;;;;;21.17;100.00;101097.72;4961532;28;20498;-73
2022/08/03 01:31:06;;;;;;;15.57;4.88;;;;;;;21.16;100.00;101096.94;4962558;28;20049;-73
2022/08/03 01:33:41;;;;;;;8.60;4.50;;;;;;;21.14;100.00;101099.44;4963388;28;20065;-71
2022/08/03 01:36:22;;;;;;;13.68;5.03;;;;;;;21.11;100.00;101096.75;4961044;28;20051;-71
2022/08/03 01:39:01;;;;;;;10.63;4.65;;;;;;;21.08;100.00;101092.84;4963147;28;20138;-70
2022/08/03 01:41:33;;;;;;;14.90;5.13;;;;;;;21.06;100.00;101100.16;4962020;28;20049;-71
2022/08/03 01:44:02;;;;;;;11.52;5.38;;;;;;;21.03;100.00;101096.25;4961937;28;20046;-71
2022/08/03 01:46:50;;;;;;;12.85;4.95;;;;;;;21.01;100.00;101084.66;4961571;28;20046;-71
2022/08/03 01:49:17;;;;;;;13.10;4.47;;;;;;;21.01;100.00;101095.13;4964568;28;20078;-72
2022/08/03 01:51:46;;;;;;;14.20;4.53;;;;;;;21.00;100.00;101090.75;4961079;28;20164;-71
2022/08/03 01:54:33;;;;;;;13.75;5.03;;;;;;;20.98;100.00;101084.78;4962279;28;20042;-71
2022/08/03 01:57:01;;;;;;;10.25;4.80;;;;;;;20.93;100.00;101088.19;4962632;28;20146;-71
2022/08/03 01:59:31;;;;;;;13.38;5.22;;;;;;;20.89;100.00;101090.34;4960350;28;20130;-71
2022/08/03 02:01:58;;;;;;;14.13;4.32;;;;;;;20.85;100.00;101084.84;4964154;28;20051;-70
2022/08/03 02:04:46;;;;;;;12.18;4.75;;;;;;;20.85;100.00;101087.66;4966262;28;20505;-71
2022/08/03 02:07:15;;;;;;;11.70;4.60;;;;;;;20.82;100.00;101093.41;4965122;28;20046;-71
2022/08/03 02:09:43;;;;;;;11.27;5.05;;;;;;;20.83;100.00;101087.34;4964752;28;20414;-71
2022/08/03 02:12:12;;;;;;;10.52;5.03;;;;;;;20.83;100.00;101089.34;4959929;28;20061;-73
2022/08/03 02:14:42;;;;;;;13.65;5.00;;;;;;;20.81;100.00;101086.22;4961658;28;20050;-71
2022/08/03 02:17:09;;;;;;;11.77;4.90;;;;;;;20.73;100.00;101080.09;4962619;28;20065;-71
2022/08/03 02:19:37;;;;;;;10.15;4.57;;;;;;;20.73;100.00;101082.09;4963548;28;20579;-73
2022/08/03 02:22:09;;;;;;;12.15;5.15;;;;;;;20.70;100.00;101083.00;4961325;28;20073;-71
2022/08/03 02:24:36;;;;;;;11.50;5.13;;;;;;;20.68;100.00;101088.31;4962044;28;20047;-71
2022/08/03 02:27:13;;;;;;;14.73;5.30;;;;;;;20.67;100.00;101092.34;4962497;28;20062;-73
2022/08/03 02:29:42;;;;;;;8.73;4.45;;;;;;;20.67;100.00;101081.91;4965457;28;20049;-68
2022/08/03 02:32:15;;;;;;;17.40;5.40;;;;;;;20.65;100.00;101089.25;4965032;28;20048;-69
2022/08/03 02:34:46;;;;;;;11.23;4.75;;;;;;;20.61;100.00;101083.72;4968087;28;20061;-69
2022/08/03 02:37:16;;;;;;;10.30;4.25;;;;;;;20.63;100.00;101086.09;4965131;28;20085;-71
2022/08/03 02:39:56;;;;;;;13.25;5.25;;;;;;;20.60;100.00;101078.56;4966181;28;20097;-70
2022/08/03 02:42:24;;;;;;;14.25;4.85;;;;;;;20.55;100.00;101084.78;4964287;28;20051;-70
2022/08/03 02:44:54;;;;;;;13.52;5.00;;;;;;;20.51;100.00;101087.72;4966703;28;20074;-72
2022/08/03 02:47:21;;;;;;;11.73;4.88;;;;;;;20.51;100.00;101084.13;4963744;28;20050;-71
2022/08/03 02:49:50;;;;;;;12.15;5.10;;;;;;;20.50;100.00;101090.97;4965391;28;20059;-71
2022/08/03 02:52:24;;;;;;;13.60;5.15;;;;;;;20.48;100.00;101087.84;4966689;28;20047;-73
2022/08/03 02:54:55;;;;;;;13.02;4.82;;;;;;;20.48;100.00;101082.22;4966065;28;20078;-72
2022/08/03 02:57:23;;;;;;;10.10;4.80;;;;;;;20.45;100.00;101080.31;4963137;28;20042;-70
2022/08/03 02:59:51;;;;;;;13.23;5.55;;;;;;;20.43;100.00;101083.59;4964542;28;20049;-71
2022/08/03 03:02:18;;;;;;;13.40;4.85;;;;;;;20.41;100.00;101085.31;4963242;28;20524;-71
2022/08/03 03:04:48;;;;;;;10.52;5.28;;;;;;;20.38;100.00;101080.59;4964958;28;20050;-72
2022/08/03 03:07:36;;;;;;;13.57;5.50;;;;;;;20.38;100.00;101077.78;4964354;28;22022;-70
2022/08/03 03:10:22;;;;;;;14.00;4.53;;;;;;;20.32;100.00;101078.34;4964992;28;20147;-72
2022/08/03 03:12:51;;;;;;;12.02;4.72;;;;;;;20.31;100.00;101073.16;4964916;28;20172;-70
2022/08/03 03:15:17;;;;;;;14.30;5.65;;;;;;;20.31;100.00;101078.78;4963115;28;20550;-71
2022/08/03 03:17:45;;;;;;;9.95;4.40;;;;;;;20.30;100.00;101080.84;4968403;28;20057;-69
2022/08/03 03:20:14;;;;;;;13.55;4.97;;;;;;;20.27;100.00;101081.75;4965065;28;20051;-71
2022/08/03 03:22:59;;;;;;;13.68;5.20;;;;;;;20.24;100.00;101071.41;4965158;28;20050;-71
2022/08/03 03:25:27;;;;;;;14.05;4.55;;;;;;;20.25;100.00;101081.41;4964766;28;20968;-72
2022/08/03 03:27:54;;;;;;;11.75;5.00;;;;;;;20.25;100.00;101083.44;4964054;28;20047;-70
2022/08/03 03:30:23;;;;;;;14.00;5.38;;;;;;;20.20;100.00;101078.38;4965662;28;20042;-70
2022/08/03 03:32:50;;;;;;;11.40;5.00;;;;;;;20.21;100.00;101089.16;4963887;28;20475;-71
2022/08/03 03:35:18;;;;;;;14.20;5.60;;;;;;;20.18;100.00;101078.84;4965805;28;20173;-71
2022/08/03 03:37:45;;;;;;;17.65;5.00;;;;;;;20.19;100.00;101088.06;4963912;28;20636;-69
2022/08/03 03:40:13;;;;;;;16.52;5.30;;;;;;;20.16;100.00;101078.53;4964202;28;20046;-70
2022/08/03 03:42:40;;;;;;;12.77;5.25;;;;;;;20.16;100.00;101089.75;4961880;28;20133;-71
2022/08/03 03:45:07;;;;;;;11.13;4.97;;;;;;;20.13;100.00;101085.06;4963102;28;20050;-72
2022/08/03 03:47:34;;;;;;;13.75;5.20;;;;;;;20.06;100.00;101085.25;4963880;28;20057;-70
2022/08/03 03:50:05;;;;;;;12.88;4.82;;;;;;;20.09;100.00;101089.19;4962185;28;20192;-70
2022/08/03 03:52:33;;;;;;;13.43;4.80;;;;;;;20.06;100.00;101085.25;4963293;28;20157;-73
2022/08/03 03:54:59;;;;;;;10.60;5.05;;;;;;;20.05;100.00;101077.28;4964603;28;20069;-70
2022/08/03 03:57:28;;;;;;;13.20;4.97;;;;;;;20.05;100.00;101085.72;4965078;28;20105;-72
2022/08/03 03:59:54;;;;;;;10.27;4.70;;;;;;;20.04;100.00;101079.31;4964367;28;20424;-71
2022/08/03 04:02:21;;;;;;;8.25;4.03;;;;;;;19.99;100.00;101087.53;4962547;28;20068;-73
2022/08/03 04:11:24;;;;;;;8.50;4.40;;;;;;;19.95;100.00;101084.81;4964209;28;20065;-73
2022/08/03 04:14:16;;;;;;;12.90;5.03;;;;;;;19.94;100.00;101088.88;4942953;28;20062;-71
2022/08/03 04:16:52;;;;;;;11.45;5.00;;;;;;;19.93;100.00;101087.31;4964873;28;20047;-70
2022/08/03 04:19:31;;;;;;;11.23;4.88;;;;;;;19.91;100.00;101084.16;4962940;28;20053;-72
2022/08/03 04:22:01;;;;;;;14.63;4.90;;;;;;;19.93;100.00;101089.31;4965319;28;20061;-70
2022/08/03 04:24:33;;;;;;;9.63;4.80;;;;;;;19.93;100.00;101080.91;4966740;28;20043;-72
2022/08/03 04:27:05;;;;;;;11.80;5.50;;;;;;;19.94;100.00;101090.88;4966152;28;20122;-71
2022/08/03 04:29:34;;;;;;;14.25;4.82;;;;;;;19.96;100.00;101085.63;4966857;28;20520;-70
2022/08/03 04:32:05;;;;;;;13.85;4.82;;;;;;;19.96;100.00;101086.41;4966713;28;20074;-71
2022/08/03 04:34:32;;;;;;;12.73;5.05;;;;;;;19.96;100.00;101089.22;4969262;28;20042;-71
2022/08/03 04:37:01;;;;;;;14.10;5.20;;;;;;;19.98;100.00;101085.97;4967238;28;20479;-69
2022/08/03 04:39:30;;;;;;;12.90;5.63;;;;;;;20.00;100.00;101086.28;4963379;28;20796;-69
2022/08/03 04:42:00;;;;;;;16.38;5.68;;;;;;;20.00;100.00;101091.88;4962899;28;20678;-69
2022/08/03 04:44:37;;;;;;;11.23;5.18;;;;;;;20.01;100.00;101097.06;4975421;28;20129;-71
2022/08/03 04:47:04;;;;;;;14.60;5.32;;;;;;;20.05;100.00;101105.38;4962152;28;20066;-73
2022/08/03 04:49:31;;;;;;;12.07;5.45;;;;;;;20.07;100.00;101095.25;4963694;28;20078;-69
2022/08/03 04:52:00;;;;;;;12.70;4.72;;;;;;;20.10;100.00;101093.56;4962670;28;20050;-70
2022/08/03 04:54:30;;;;;;;15.93;5.15;;;;;;;20.11;100.00;101101.56;4961847;28;20043;-70
2022/08/03 04:56:56;;;;;;;14.43;5.05;;;;;;;20.12;100.00;101102.34;4965257;28;20080;-69
2022/08/03 04:59:23;;;;;;;16.13;5.10;;;;;;;20.13;100.00;101101.09;4962031;28;20058;-70
2022/08/03 05:01:49;;;;;;;16.30;5.68;;;;;;;20.15;100.00;101107.06;4961390;28;20046;-72
2022/08/03 05:04:16;;;;;;;10.43;5.03;;;;;;;20.18;100.00;101092.88;4969369;28;20082;-72
2022/08/03 05:06:42;;;;;;;15.50;5.60;;;;;;;20.23;100.00;101103.56;4969527;28;20178;-71
2022/08/03 05:09:20;;;;;;;11.85;4.82;;;;;;;20.27;100.00;101104.22;4962029;28;20885;-71
2022/08/03 05:12:07;;;;;;;10.15;4.90;;;;;;;20.33;100.00;101102.41;4967112;28;20471;-72
2022/08/03 05:14:36;;;;;;;13.07;5.30;;;;;;;20.31;100.00;101093.63;4969606;28;20122;-70
2022/08/03 05:17:07;;;;;;;11.25;4.55;;;;;;;20.46;100.00;101098.75;4969017;28;20047;-69
2022/08/03 05:19:36;;;;;;;14.55;5.07;;;;;;;20.52;100.00;101108.97;4969381;28;20050;-68
2022/08/03 05:22:03;;;;;;;12.68;5.05;;;;;;;20.59;100.00;101111.53;4968091;28;20428;-69
2022/08/03 05:24:29;;;;;;;15.50;5.43;;;;;;;20.65;100.00;101094.88;4961173;28;20130;-68
2022/08/03 05:26:56;;;;;;;15.13;5.03;;;;;;;20.74;100.00;101109.75;4967798;28;20066;-71
2022/08/03 05:29:22;;;;;;;12.05;5.57;;;;;;;20.82;100.00;101107.47;4962709;28;20058;-70
2022/08/03 05:31:49;;;;;;;13.13;5.05;;;;;;;20.90;100.00;101106.75;4966418;28;20142;-70
2022/08/03 05:34:15;;;;;;;10.73;4.85;;;;;;;21.01;100.00;101101.53;4965721;28;20061;-70
2022/08/03 05:36:42;;;;;;;14.55;5.13;;;;;;;21.12;100.00;101112.41;4962842;28;20374;-68
2022/08/03 05:39:11;;;;;;;11.60;4.80;;;;;;;21.23;100.00;101096.66;4962050;28;20051;-71
2022/08/03 05:41:37;;;;;;;12.70;5.43;;;;;;;21.33;100.00;101106.72;4955362;28;20630;-68
2022/08/03 05:44:06;;;;;;;13.80;5.10;;;;;;;21.45;100.00;101105.84;4959489;28;20078;-71
2022/08/03 05:46:33;;;;;;;15.65;5.53;;;;;;;21.57;100.00;101107.00;4952044;28;20062;-71
2022/08/03 05:48:59;;;;;;;15.57;5.30;;;;;;;21.70;100.00;101107.69;4963190;28;20047;-69
2022/08/03 05:51:27;;;;;;;14.32;5.28;;;;;;;21.87;100.00;101115.41;4965697;28;20511;-71
2022/08/03 05:53:54;;;;;;;14.40;4.68;;;;;;;21.99;100.00;101122.19;4966538;28;20572;-70
2022/08/03 05:56:23;;;;;;;17.50;5.70;;;;;;;22.17;100.00;101120.19;4967900;28;20058;-71
2022/08/03 05:58:51;;;;;;;16.52;5.90;;;;;;;22.32;100.00;101118.34;4960856;28;20062;-72
2022/08/03 06:01:20;;;;;;;12.68;4.70;;;;;;;22.44;100.00;101117.41;4963693;28;20055;-73
2022/08/03 06:03:48;;;;;;;14.35;5.45;;;;;;;22.56;100.00;101115.72;4970149;28;20109;-70
2022/08/03 06:06:15;;;;;;;13.40;4.40;;;;;;;22.66;100.00;101117.28;4962158;28;20092;-68
2022/08/03 06:08:43;;;;;;;15.52;5.10;;;;;;;22.76;100.00;101121.66;4962241;28;20138;-70
2022/08/03 06:11:10;;;;;;;29.00;5.80;;;;;;;22.85;100.00;101116.03;4963260;28;20042;-70
2022/08/03 06:13:37;;;;;;;13.55;5.22;;;;;;;22.95;100.00;101117.59;4970771;28;20699;-68
2022/08/03 06:16:04;;;;;;;18.05;5.55;;;;;;;23.06;100.00;101117.88;4969065;28;20139;-65
2022/08/03 06:18:30;;;;;;;15.75;5.47;;;;;;;23.16;100.00;101115.81;4966699;28;20042;-70
2022/08/03 06:20:57;;;;;;;14.18;5.32;;;;;;;23.19;100.00;101121.31;4960165;28;20065;-68
2022/08/03 06:23:42;;;;;;;15.43;5.22;;;;;;;23.33;100.00;101120.66;4965072;28;20051;-69
2022/08/03 06:26:21;;;;;;;12.50;5.35;;;;;;;23.43;100.00;101112.94;4963115;28;20059;-71
2022/08/03 06:28:48;;;;;;;14.45;5.55;;;;;;;23.55;100.00;101115.53;4967842;28;20043;-70
2022/08/03 06:31:21;;;;;;;17.75;5.03;;;;;;;23.63;100.00;101105.50;4965726;28;20050;-65
2022/08/03 06:33:48;;;;;;;14.18;5.40;;;;;;;23.71;100.00;101112.34;4967806;28;20043;-66
2022/08/03 06:36:34;;;;;;;12.98;4.93;;;;;;;23.87;100.00;101117.59;4965736;28;20418;-66
2022/08/03 06:39:02;;;;;;;17.52;5.43;;;;;;;23.97;100.00;101112.72;4966918;28;20043;-68
2022/08/03 06:41:28;;;;;;;13.00;4.70;;;;;;;24.04;100.00;101113.16;4960039;28;20244;-66
2022/08/03 06:44:02;;;;;;;12.32;5.55;;;;;;;24.17;100.00;101112.91;4961395;28;20081;-66
2022/08/03 06:46:30;;;;;;;15.55;5.35;;;;;;;24.30;100.00;101119.88;4968878;28;20446;-65
2022/08/03 06:48:56;;;;;;;14.15;4.80;;;;;;;24.38;100.00;101123.91;4970893;28;20046;-67
2022/08/03 06:51:23;;;;;;;14.82;4.80;;;;;;;24.50;99.30;101117.19;4967139;28;20054;-66
2022/08/03 06:54:11;;;;;;;20.38;5.47;;;;;;;24.64;97.95;101119.31;4969093;28;20054;-68
2022/08/03 06:56:40;;;;;;;14.93;4.50;;;;;;;24.75;96.66;101115.94;4970554;28;20130;-65
2022/08/03 06:59:07;;;;;;;15.02;5.13;;;;;;;24.90;97.26;101116.72;4962115;28;20055;-70
2022/08/03 07:01:33;;;;;;;14.30;4.50;;;;;;;24.93;94.24;101122.22;4968941;28;20047;-68
2022/08/03 07:04:01;;;;;;;13.73;4.72;;;;;;;25.00;95.40;101130.31;4966396;28;20511;-67
2022/08/03 07:06:27;;;;;;;16.38;5.30;;;;;;;25.15;94.86;101121.84;4969308;28;20076;-67
2022/08/03 07:08:55;;;;;;;11.55;3.97;;;;;;;25.21;93.18;101125.56;4962309;28;20051;-67
2022/08/03 07:11:25;;;;;;;16.60;4.53;;;;;;;25.31;92.92;101126.25;4961943;28;20081;-66
2022/08/03 07:13:51;;;;;;;16.55;4.47;;;;;;;25.40;92.64;101117.63;4967369;28;20050;-70
2022/08/03 07:16:21;;;;;;;15.88;4.70;;;;;;;25.45;92.52;101125.47;4963293;28;20138;-69
2022/08/03 07:18:48;;;;;;;15.68;4.43;;;;;;;25.56;90.71;101134.94;4963854;28;20392;-68
2022/08/03 07:21:15;;;;;;;15.80;3.97;;;;;;;25.69;88.61;101134.63;4965342;28;20061;-70
2022/08/03 07:23:42;;;;;;;10.93;3.60;;;;;;;25.84;85.56;101132.50;4963189;28;20046;-70
2022/08/03 07:26:08;;;;;;;11.63;4.53;;;;;;;26.02;86.80;101133.06;4963869;28;20053;-69
2022/08/03 07:28:35;;;;;;;12.73;3.63;;;;;;;26.15;85.35;101124.25;4963784;28;20049;-71
2022/08/03 07:31:01;;;;;;;10.52;3.40;;;;;;;26.10;82.67;101128.56;4968211;28;20050;-72
2022/08/03 07:33:28;;;;;;;14.27;3.20;;;;;;;26.29;83.85;101129.84;4967395;28;20047;-70
2022/08/03 07:35:57;;;;;;;9.32;3.42;;;;;;;26.33;81.54;101138.94;4958582;28;20510;-69
2022/08/03 07:38:24;;;;;;;7.90;3.20;;;;;;;26.39;82.36;101141.84;4959688;28;20141;-70
2022/08/03 07:40:50;;;;;;;10.95;2.65;;;;;;;26.42;79.19;101149.38;4961144;28;20078;-69
2022/08/03 07:43:17;;;;;;;9.05;2.80;;;;;;;26.62;80.21;101143.69;4966656;28;20062;-69
2022/08/03 07:45:43;;;;;;;11.23;3.10;;;;;;;26.77;80.82;101133.06;4964849;28;20053;-68
2022/08/03 07:48:10;;;;;;;8.57;2.92;;;;;;;26.78;77.34;101134.59;4969463;28;20598;-68
2022/08/03 07:50:38;;;;;;;10.00;2.03;;;;;;;26.79;76.06;101134.13;4964642;28;20047;-69
2022/08/03 07:53:04;;;;;;;11.60;3.33;;;;;;;27.02;77.20;101138.75;4967784;28;20038;-70
2022/08/03 07:55:31;;;;;;;14.57;3.10;;;;;;;27.10;77.68;101137.03;4960877;28;20129;-68
2022/08/03 07:58:05;;;;;;;6.78;2.72;;;;;;;27.10;74.54;101137.03;4959303;28;20078;-69
2022/08/03 08:00:32;;;;;;;8.50;1.98;;;;;;;27.14;74.87;101142.50;4960718;28;20070;-68
2022/08/03 08:02:59;;;;;;;6.47;2.05;;;;;;;27.19;73.36;101138.91;4960664;28;20058;-68
2022/08/03 08:05:26;;;;;;;9.63;2.60;;;;;;;27.38;73.92;101148.69;4961972;28;20734;-67
2022/08/03 08:07:53;;;;;;;8.18;2.67;;;;;;;27.36;72.00;101139.88;4959934;28;20165;-68
2022/08/03 08:10:20;;;;;;;9.07;2.90;;;;;;;27.54;73.41;101145.22;4965937;28;20073;-67
2022/08/03 08:12:47;;;;;;;9.90;3.22;;;;;;;27.64;71.19;101140.91;4969536;28;20051;-69
2022/08/03 08:15:19;;;;;;;8.63;2.63;;;;;;;27.76;70.65;101142.53;4970062;28;20047;-71
2022/08/03 08:17:52;;;;;;;11.07;2.65;;;;;;;27.77;68.44;101132.72;4964986;28;20149;-71
2022/08/03 08:20:31;;;;;;;8.40;2.92;;;;;;;27.94;69.53;101142.16;4962355;28;20169;-68
2022/08/03 08:23:03;;;;;;;8.95;2.40;;;;;;;28.02;68.66;101136.78;4964125;28;20061;-67
2022/08/03 08:25:51;;;;;;;8.38;1.88;;;;;;;28.02;67.05;101136.78;4963885;28;20407;-69
2022/08/03 08:28:21;;;;;;;9.10;2.50;;;;;;;28.03;64.79;101136.28;4961762;28;20050;-66
2022/08/03 08:30:59;;;;;;;6.38;2.65;;;;;;;28.22;66.16;101139.50;4961654;28;20154;-65
2022/08/03 08:33:26;;;;;;;4.15;1.38;;;;;;;28.11;62.23;101134.50;4962670;28;20058;-69
2022/08/03 08:36:12;;;;;;;6.70;2.35;;;;;;;28.19;63.10;101140.50;4960274;28;20058;-68
2022/08/03 08:38:43;;;;;;;5.20;1.80;;;;;;;28.23;62.00;101132.50;4962489;28;20419;-72
2022/08/03 08:41:11;;;;;;;5.85;2.05;;;;;;;28.30;62.20;101140.56;4959776;28;20549;-69
2022/08/03 08:43:41;;;;;;;5.72;2.15;;;;;;;28.33;62.09;101133.84;4957829;28;20061;-69
2022/08/03 08:46:11;;;;;;;5.55;2.85;;;;;;;28.37;61.41;101128.69;4961711;28;20193;-71
2022/08/03 08:48:43;;;;;;;6.40;1.98;;;;;;;28.35;60.12;101148.38;4962790;28;20142;-71
2022/08/03 08:51:12;;;;;;;7.78;2.22;;;;;;;28.33;60.08;101134.66;4960846;28;20055;-68
2022/08/03 08:53:42;;;;;;;3.58;1.98;;;;;;;28.44;61.01;101133.94;4963375;28;20138;-69
2022/08/03 08:56:15;;;;;;;10.68;3.20;;;;;;;28.45;61.11;101141.97;4960599;28;20096;-67
2022/08/03 08:58:47;;;;;;;1.98;1.20;;;;;;;28.29;59.86;101142.66;4961715;28;20125;-74
2022/08/03 09:01:18;;;;;;;5.68;2.35;;;;;;;28.54;60.49;101138.91;4958698;28;20059;-69
2022/08/03 09:03:48;;;;;;;7.63;2.50;;;;;;;28.63;60.70;101133.00;4961024;28;20065;-70
2022/08/03 09:06:15;;;;;;;4.68;1.98;;;;;;;28.57;60.27;101140.72;4961186;28;20065;-71
2022/08/03 09:08:42;;;;;;;9.73;2.53;;;;;;;28.67;60.71;101133.53;4961651;28;20047;-71
2022/08/03 09:11:08;;;;;;;10.82;2.83;;;;;;;28.77;61.29;101134.84;4962912;28;20069;-71
2022/08/03 09:13:38;;;;;;;7.60;2.58;;;;;;;28.57;60.23;101129.34;4955306;28;20110;-68
2022/08/03 09:16:15;;;;;;;6.25;2.45;;;;;;;28.57;59.95;101129.34;4933128;28;20435;-72
2022/08/03 09:18:44;;;;;;;8.50;2.70;;;;;;;28.67;62.14;101136.38;4932766;28;20047;-69
2022/08/03 09:21:18;;;;;;;3.55;2.00;;;;;;;28.70;61.05;101134.56;4948725;28;20812;-72
2022/08/03 09:24:02;;;;;;;7.40;2.40;;;;;;;28.61;62.09;101127.03;4949388;28;20062;-70
2022/08/03 09:26:35;;;;;;;10.80;2.10;;;;;;;28.67;62.31;101130.66;4945950;28;20885;-74
2022/08/03 09:29:08;;;;;;;10.10;2.40;;;;;;;28.67;61.20;101133.53;4941821;28;20101;-72
2022/08/03 09:31:44;;;;;;;4.50;2.20;;;;;;;28.66;61.83;101123.44;4945869;28;20242;-73
2022/08/03 09:34:16;;;;;;;7.10;2.67;;;;;;;28.84;62.80;101131.50;4941677;28;20166;-76
2022/08/03 09:36:49;;;;;;;10.00;3.17;;;;;;;29.07;62.49;101129.50;4950977;28;20154;-71
2022/08/03 09:39:22;;;;;;;6.35;1.95;;;;;;;29.06;58.30;101140.09;4952935;28;20051;-74
2022/08/03 09:42:14;;;;;;;8.95;2.22;;;;;;;29.38;58.13;101138.59;4951729;28;20909;-74
2022/08/03 09:44:43;;;;;;;5.78;1.90;;;;;;;29.49;56.15;101134.97;4951900;28;20145;-76
2022/08/03 09:47:10;;;;;;;3.22;1.15;;;;;;;29.42;53.96;101132.63;4949770;28;20058;-76
2022/08/03 09:49:40;;;;;;;1.20;0.88;;;;;;;29.49;53.55;101134.97;4943519;28;20150;-74
2022/08/03 09:52:21;;;;;;;5.88;2.40;;;;;;;29.61;52.66;101130.84;4950235;28;20058;-74
2022/08/03 09:55:08;;;;;;;9.35;3.03;;;;;;;29.88;53.05;101129.25;4949389;28;20058;-74
2022/08/03 09:58:04;;;;;;;4.45;2.00;;;;;;;29.95;52.00;101128.72;4948433;28;20046;-75
2022/08/03 10:00:55;;;;;;;3.92;1.95;;;;;;;29.72;50.85;101132.94;4941134;28;20057;-75
2022/08/03 10:03:25;;;;;;;11.65;3.47;;;;;;;30.06;51.87;101125.88;4945925;28;20054;-76
2022/08/03 10:05:52;;;;;;;7.88;3.03;;;;;;;30.31;51.27;101119.06;4946481;28;20533;-77
2022/08/03 10:08:25;;;;;;;3.25;0.90;;;;;;;30.21;49.66;101130.00;4944553;28;20050;-76
2022/08/03 10:10:53;;;;;;;9.60;2.25;;;;;;;30.34;50.77;101124.53;4946712;28;20053;-78
2022/08/03 10:13:21;;;;;;;4.95;1.63;;;;;;;30.35;50.08;101122.44;4947158;28;20058;-78
2022/08/03 10:15:48;;;;;;;6.80;2.55;;;;;;;30.42;49.63;101125.50;4945912;28;20055;-76
2022/08/03 10:18:34;;;;;;;8.10;2.92;;;;;;;30.44;49.25;101116.44;4945709;28;20057;-74
2022/08/03 10:21:09;;;;;;;5.85;1.85;;;;;;;30.55;49.11;101113.50;4945920;28;20527;-75
2022/08/03 10:23:39;;;;;;;7.17;2.47;;;;;;;30.63;48.69;101111.66;4935124;28;20069;-77
2022/08/03 10:26:06;;;;;;;6.90;2.65;;;;;;;30.75;48.22;101118.91;4946852;28;20310;-76
2022/08/03 10:28:36;;;;;;;8.32;2.80;;;;;;;31.03;49.78;101108.06;4945884;28;20609;-74
2022/08/03 10:31:11;;;;;;;8.77;2.40;;;;;;;31.01;44.81;101108.59;4939006;28;20423;-76
2022/08/03 10:33:42;;;;;;;2.58;0.60;;;;;;;30.79;41.91;101107.97;4940129;28;20050;-77
2022/08/03 10:36:22;;;;;;;3.35;1.25;;;;;;;30.91;43.09;101115.16;4938663;28;20062;-80
2022/08/03 10:38:55;;;;;;;8.90;2.13;;;;;;;30.97;42.39;101105.25;4940494;28;20051;-78
2022/08/03 10:41:25;;;;;;;2.85;0.70;;;;;;;30.78;42.95;101104.34;4943570;28;20167;-80
2022/08/03 10:43:57;;;;;;;9.73;2.50;;;;;;;31.07;44.58;101099.97;4945353;28;20050;-79
2022/08/03 10:46:26;;;;;;;11.77;2.28;;;;;;;31.12;43.60;101097.09;4941073;28;20059;-81
2022/08/03 10:48:53;;;;;;;7.18;1.80;;;;;;;31.41;44.64;101092.72;4943969;28;20149;-78
2022/08/03 10:51:23;;;;;;;14.32;2.47;;;;;;;31.51;42.35;101088.22;4946407;28;20058;-78
2022/08/03 10:53:52;;;;;;;29.60;1.58;;;;;;;31.42;41.96;101092.19;4947248;28;20051;-79
2022/08/03 10:59:45;;;;;;;11.23;2.70;;;;;;;32.02;42.57;101083.56;4944684;28;20283;-80
2022/08/03 11:02:15;;;;;;;11.52;3.00;;;;;;;32.16;42.02;101083.16;4943876;28;20053;-76
2022/08/03 11:04:43;;;;;;;9.13;2.20;;;;;;;32.12;41.88;101073.31;4952277;28;20055;-77
2022/08/03 11:07:21;;;;;;;13.02;2.45;;;;;;;32.25;41.81;101074.16;4950422;28;20051;-77
2022/08/03 11:09:53;;;;;;;15.98;3.20;;;;;;;32.43;42.23;101070.59;4952959;28;20161;-76
2022/08/03 11:12:30;;;;;;;9.90;3.40;;;;;;;32.58;41.93;101075.84;4941850;28;20094;-78
2022/08/03 11:15:01;;;;;;;15.95;3.17;;;;;;;32.63;42.19;101072.91;4943851;28;20047;-78
2022/08/03 11:17:28;;;;;;;10.23;2.20;;;;;;;32.75;41.20;101071.44;4945776;28;20051;-79
2022/08/03 11:19:59;;;;;;;10.70;2.60;;;;;;;32.88;41.16;101065.81;4946422;28;20059;-78
2022/08/03 11:22:49;;;;;;;11.02;2.50;;;;;;;32.69;41.12;101075.72;4939591;28;20054;-79
2022/08/03 11:25:16;;;;;;;11.70;3.30;;;;;;;32.84;41.98;101059.63;4944221;28;20583;-77
2022/08/03 11:28:32;;;;;;;9.13;2.80;;;;;;;33.30;41.33;101059.09;4944738;28;20059;-76
2022/08/03 11:31:22;;;;;;;15.00;2.90;;;;;;;33.37;39.85;101066.34;4938893;28;20439;-77
2022/08/03 11:34:11;;;;;;;12.57;3.40;;;;;;;33.53;40.44;101063.16;4931456;28;20055;-76
2022/08/03 11:37:15;;;;;;;9.02;2.40;;;;;;;33.66;39.21;101068.13;4934788;28;20196;-77
2022/08/03 11:39:45;;;;;;;9.32;2.38;;;;;;;33.92;39.72;101060.34;4942652;28;20134;-77
2022/08/03 11:42:21;;;;;;;13.35;2.33;;;;;;;33.83;38.32;101062.84;4945824;28;20165;-77
2022/08/03 11:44:52;;;;;;;9.10;2.50;;;;;;;33.94;38.40;101063.44;4943892;28;20134;-78